Time;durP1;ratioP1;P1;durP2;ratioP2;P2;SDS_P1;SDS_P2;PMS_P1;PMS_P2;Temp;Humidity;BMP_temperature;BMP_pressure;BME280_temperature;BME280_humidity;BME280_pressure;Samples;Min_cycle;Max_cycle;Signal;HPM_P1;HPM_P2
2022/03/07 00:00:35;;;;;;;24.00;14.90;;;;;;;-2.15;54.86;100027.45;433933;1270;141933;-70
2022/03/07 00:10:42;;;;;;;20.90;14.50;;;;;;;-2.17;55.25;100025.40;440229;1271;143076;-76
2022/03/07 00:20:47;;;;;;;26.20;14.90;;;;;;;-2.18;55.73;100024.90;437724;1270;141024;-78
2022/03/07 00:30:53;;;;;;;19.40;13.60;;;;;;;-2.18;56.07;100018.03;434788;1270;142164;-79
2022/03/07 00:41:00;;;;;;;19.60;13.00;;;;;;;-2.19;56.43;100016.67;440142;1270;140820;-78
2022/03/07 00:51:06;;;;;;;20.70;12.50;;;;;;;-2.21;56.91;100021.13;439367;1270;142052;-78
2022/03/07 01:01:12;;;;;;;20.60;13.70;;;;;;;-2.21;57.27;100022.00;437195;1270;141759;-79
2022/03/07 01:11:18;;;;;;;19.90;13.10;;;;;;;-2.20;57.45;100017.52;441860;1270;141469;-79
2022/03/07 01:21:24;;;;;;;20.20;13.70;;;;;;;-2.20;57.83;100006.39;434392;1270;142971;-80
2022/03/07 01:31:30;;;;;;;24.10;16.00;;;;;;;-2.20;58.00;100000.55;434855;1270;142465;-79
2022/03/07 01:41:36;;;;;;;22.00;13.10;;;;;;;-2.21;58.33;99994.04;435199;1270;144531;-78
2022/03/07 01:51:44;;;;;;;22.30;13.40;;;;;;;-2.22;58.63;99981.86;434259;1270;143090;-77
2022/03/07 02:01:50;;;;;;;18.70;12.70;;;;;;;-2.24;58.91;99976.04;435167;1270;143180;-78
2022/03/07 02:11:56;;;;;;;21.20;13.00;;;;;;;-2.24;59.24;99968.33;435057;1270;140554;-78
2022/03/07 02:22:04;;;;;;;20.20;11.90;;;;;;;-2.24;59.53;99967.13;434581;1270;140788;-79
2022/03/07 02:32:10;;;;;;;17.60;12.30;;;;;;;-2.24;59.63;99959.91;435217;1270;141578;-79
2022/03/07 02:42:17;;;;;;;18.90;12.40;;;;;;;-2.26;59.85;99949.80;440789;1270;141541;-79
2022/03/07 02:52:23;;;;;;;19.10;12.20;;;;;;;-2.27;60.18;99941.06;441681;1270;140791;-79
2022/03/07 03:02:29;;;;;;;23.60;14.30;;;;;;;-2.28;60.24;99935.92;447162;1270;142349;-79
2022/03/07 03:12:35;;;;;;;17.50;12.20;;;;;;;-2.28;60.45;99933.52;446560;1270;141653;-79
2022/03/07 03:22:42;;;;;;;21.00;12.30;;;;;;;-2.27;60.50;99934.02;435551;1270;141972;-79
2022/03/07 03:32:48;;;;;;;22.30;12.30;;;;;;;-2.30;60.70;99932.67;435202;1270;141204;-78
2022/03/07 03:42:54;;;;;;;18.60;11.50;;;;;;;-2.32;60.93;99936.46;434352;1270;141564;-78
2022/03/07 03:53:00;;;;;;;21.20;12.30;;;;;;;-2.32;61.03;99940.91;434799;1271;142040;-79
2022/03/07 04:03:06;;;;;;;18.40;11.80;;;;;;;-2.32;61.13;99937.14;435232;1271;145909;-78
2022/03/07 04:13:12;;;;;;;17.00;12.30;;;;;;;-2.29;61.24;99946.39;436115;1271;141570;-78
2022/03/07 04:23:21;;;;;;;18.90;11.90;;;;;;;-2.27;61.43;99956.51;435478;1271;141692;-78
2022/03/07 04:33:27;;;;;;;15.70;11.00;;;;;;;-2.36;61.55;99952.79;445875;1271;143496;-77
2022/03/07 04:43:33;;;;;;;15.00;10.20;;;;;;;-2.46;61.73;99953.16;447025;1269;145690;-78
2022/03/07 04:53:39;;;;;;;17.50;11.60;;;;;;;-2.56;62.04;99954.59;446358;1270;141906;-77
2022/03/07 05:03:45;;;;;;;13.50;9.00;;;;;;;-2.76;62.41;99955.00;434593;1270;141486;-78
2022/03/07 05:13:51;;;;;;;20.60;11.90;;;;;;;-3.12;63.05;99939.52;434975;1271;143893;-77
2022/03/07 05:23:56;;;;;;;15.80;10.60;;;;;;;-3.39;64.02;99931.17;435528;1271;141764;-78
2022/03/07 05:34:02;;;;;;;13.80;10.40;;;;;;;-3.50;64.74;99927.25;434329;1273;142224;-78
2022/03/07 05:44:08;;;;;;;13.90;8.80;;;;;;;-3.52;65.24;99929.81;434948;1271;141460;-78
2022/03/07 05:54:14;;;;;;;14.30;9.40;;;;;;;-3.46;65.76;99934.27;438979;1271;141811;-78
2022/03/07 06:04:20;;;;;;;16.40;9.80;;;;;;;-3.10;66.10;99930.08;435276;1272;141985;-79
2022/03/07 06:14:26;;;;;;;18.40;9.80;;;;;;;-0.21;65.34;99926.83;433370;1271;142584;-71
2022/03/07 06:24:32;;;;;;;14.70;9.30;;;;;;;6.25;59.51;99926.58;446530;1271;141848;-72
2022/03/07 06:34:38;;;;;;;15.30;9.30;;;;;;;10.41;52.53;99913.34;447323;1271;141448;-72
2022/03/07 06:44:44;;;;;;;13.20;10.00;;;;;;;12.16;48.50;99897.83;447352;1271;141722;-72
2022/03/07 06:54:50;;;;;;;16.80;11.80;;;;;;;13.85;45.08;99909.67;446542;1271;142425;-72
2022/03/07 07:04:58;;;;;;;14.30;10.00;;;;;;;15.11;42.59;99904.64;447271;1270;141731;-72
2022/03/07 07:15:04;;;;;;;12.00;10.10;;;;;;;16.27;40.45;99891.52;447324;1270;141170;-73
2022/03/07 07:25:12;;;;;;;13.70;8.60;;;;;;;19.43;38.67;99894.61;443243;1271;143164;-73
2022/03/07 07:35:18;;;;;;;11.10;7.90;;;;;;;19.94;35.63;99899.52;447399;1270;144901;-66
2022/03/07 07:45:25;;;;;;;9.30;7.90;;;;;;;19.34;33.58;99895.78;433268;1270;141643;-71
2022/03/07 07:55:30;;;;;;;9.40;6.60;;;;;;;17.43;32.93;99896.88;432536;1271;140916;-65
2022/03/07 08:05:36;;;;;;;8.20;6.50;;;;;;;17.35;32.90;99899.37;445718;1270;141845;-65
2022/03/07 08:15:42;;;;;;;7.40;5.00;;;;;;;17.10;32.19;99899.92;446414;1270;142885;-66
2022/03/07 08:25:48;;;;;;;10.50;6.10;;;;;;;19.61;31.81;99900.38;447397;1270;141680;-63
2022/03/07 08:35:55;;;;;;;21.50;5.80;;;;;;;19.99;30.44;99889.48;447005;1270;313943;-69
2022/03/07 08:46:01;;;;;;;7.80;4.30;;;;;;;18.86;28.61;99887.23;446154;1273;181466;-67
2022/03/07 08:56:07;;;;;;;5.20;3.90;;;;;;;15.13;31.03;99885.48;446434;1270;141426;-71
2022/03/07 09:06:32;;;;;;;7.60;4.20;;;;;;;14.90;31.62;99881.55;446411;1270;141713;-68
2022/03/07 09:16:38;;;;;;;6.10;3.50;;;;;;;16.55;30.64;99874.30;447103;1271;142015;-69
2022/03/07 09:26:44;;;;;;;5.30;4.10;;;;;;;13.21;31.43;99884.70;447438;1270;142136;-59
2022/03/07 09:36:50;;;;;;;5.70;4.10;;;;;;;7.77;36.65;99891.38;442521;1270;141696;-61
2022/03/07 09:46:57;;;;;;;7.20;4.00;;;;;;;5.81;40.14;99884.24;447023;1271;141461;-63
2022/03/07 09:57:04;;;;;;;7.30;5.40;;;;;;;5.60;41.59;99884.39;447159;1271;141285;-64
2022/03/07 10:07:11;;;;;;;8.20;6.40;;;;;;;5.32;43.20;99881.96;434435;1270;141059;-66
2022/03/07 10:17:22;;;;;;;13.20;6.40;;;;;;;6.01;43.36;99884.02;430602;1269;141712;-62
2022/03/07 10:27:30;;;;;;;9.00;5.70;;;;;;;6.54;43.08;99891.42;432659;1271;142843;-61
2022/03/07 10:37:38;;;;;;;8.00;6.10;;;;;;;6.07;43.52;99899.78;434190;1270;140822;-63
2022/03/07 10:47:50;;;;;;;8.60;6.70;;;;;;;5.54;44.76;99895.91;441182;1270;141163;-65
2022/03/07 10:58:06;;;;;;;8.80;6.80;;;;;;;5.17;45.93;99885.95;441266;1271;140747;-66
2022/03/07 11:08:14;;;;;;;10.00;7.80;;;;;;;4.40;47.67;99875.31;447338;1270;140850;-65
2022/03/07 11:18:22;;;;;;;9.10;7.00;;;;;;;4.29;48.52;99862.50;446498;1270;142133;-69
2022/03/07 11:28:30;;;;;;;9.80;7.20;;;;;;;4.24;49.16;99856.79;447456;1269;144011;-65
2022/03/07 11:38:36;;;;;;;10.70;8.10;;;;;;;4.52;49.34;99864.85;445646;1270;141184;-66
2022/03/07 11:48:48;;;;;;;9.30;8.30;;;;;;;4.02;49.90;99857.70;446685;1270;142481;-67
2022/03/07 11:58:57;;;;;;;12.10;7.90;;;;;;;3.95;50.44;99854.95;447062;1271;142465;-65
2022/03/07 12:09:07;;;;;;;12.70;8.20;;;;;;;4.20;50.50;99848.94;446588;1270;141333;-64
2022/03/07 12:19:18;;;;;;;13.30;8.40;;;;;;;4.63;49.63;99842.63;432246;1270;141126;-68
2022/03/07 12:29:27;;;;;;;12.70;9.50;;;;;;;4.50;49.04;99840.67;432351;1270;141733;-67
2022/03/07 12:39:44;;;;;;;9.30;7.60;;;;;;;4.29;49.24;99835.82;446468;1270;140873;-65
2022/03/07 12:49:52;;;;;;;16.90;9.30;;;;;;;4.53;49.43;99830.32;434475;1270;141093;-64
2022/03/07 13:00:01;;;;;;;11.90;7.40;;;;;;;4.24;48.65;99839.11;443404;1270;141137;-73
2022/03/07 13:10:10;;;;;;;8.70;6.90;;;;;;;4.15;49.03;99825.38;433287;1270;140345;-64
2022/03/07 13:20:27;;;;;;;7.60;5.70;;;;;;;4.32;49.10;99823.57;433792;1268;141508;-74
2022/03/07 13:30:34;;;;;;;8.70;5.50;;;;;;;4.76;48.62;99814.06;431371;1271;139547;-66
2022/03/07 13:40:40;;;;;;;9.60;5.10;;;;;;;4.95;47.83;99809.02;432475;1271;139703;-64
2022/03/07 13:50:52;;;;;;;11.70;7.00;;;;;;;4.69;47.75;99809.46;430957;1271;140454;-63
2022/03/07 14:01:07;;;;;;;10.40;6.30;;;;;;;4.13;48.43;99815.58;433853;1271;140683;-69
2022/03/07 14:11:33;;;;;;;14.30;7.80;;;;;;;4.09;49.07;99820.55;430783;1271;142456;-63
2022/03/07 14:21:40;;;;;;;17.00;7.20;;;;;;;4.26;49.34;99822.58;430350;1271;140693;-63
2022/03/07 14:31:47;;;;;;;10.80;6.50;;;;;;;4.27;48.83;99825.14;433395;1271;195932;-59
2022/03/07 14:41:53;;;;;;;10.30;6.60;;;;;;;4.24;49.10;99818.84;432297;1270;140761;-59
2022/03/07 14:52:17;;;;;;;14.50;8.00;;;;;;;4.53;48.91;99822.19;437602;1270;142895;-67
2022/03/07 15:02:23;;;;;;;12.10;7.90;;;;;;;4.44;49.31;99826.48;440182;1270;141524;-72
2022/03/07 15:12:29;;;;;;;9.50;6.60;;;;;;;4.39;49.70;99819.55;430257;1272;141874;-66
2022/03/07 15:22:35;;;;;;;14.00;7.80;;;;;;;3.85;49.56;99818.05;434052;1271;143786;-61
2022/03/07 15:32:45;;;;;;;11.50;6.20;;;;;;;3.55;50.29;99813.63;432372;1270;140286;-64
2022/03/07 15:42:51;;;;;;;12.00;6.60;;;;;;;3.52;50.49;99822.71;430570;1270;141101;-76
2022/03/07 15:52:57;;;;;;;15.90;7.60;;;;;;;3.42;50.66;99823.03;432161;1270;143575;-62
2022/03/07 16:03:03;;;;;;;12.80;8.30;;;;;;;3.33;51.42;99823.11;431200;1273;140720;-64
2022/03/07 16:13:09;;;;;;;11.30;6.40;;;;;;;3.17;51.88;99829.30;437131;1270;140699;-66
2022/03/07 16:23:16;;;;;;;16.00;7.80;;;;;;;3.06;52.17;99843.29;436685;1272;142365;-67
2022/03/07 16:33:24;;;;;;;15.30;7.40;;;;;;;3.02;52.86;99860.17;431525;1270;141121;-67
2022/03/07 16:43:30;;;;;;;10.10;5.80;;;;;;;2.96;52.95;99869.16;432686;1271;140456;-65
2022/03/07 16:53:36;;;;;;;8.90;5.80;;;;;;;2.87;52.69;99871.48;431085;1273;141791;-61
2022/03/07 17:03:42;;;;;;;8.70;5.20;;;;;;;2.79;52.86;99884.50;430092;1272;141135;-65
2022/03/07 17:13:48;;;;;;;10.20;5.20;;;;;;;2.74;52.86;99897.42;430663;1270;141268;-64
2022/03/07 17:23:54;;;;;;;7.80;4.90;;;;;;;2.68;53.24;99916.42;431841;1270;140586;-65
2022/03/07 17:34:00;;;;;;;9.70;4.80;;;;;;;2.63;53.45;99924.34;431107;1270;142202;-66
2022/03/07 17:44:06;;;;;;;13.10;6.90;;;;;;;2.54;53.88;99918.52;432042;1270;141713;-68
2022/03/07 17:54:12;;;;;;;8.00;5.50;;;;;;;2.33;54.13;99916.61;431440;1270;141295;-66
2022/03/07 18:04:18;;;;;;;9.40;4.30;;;;;;;1.93;54.57;99920.14;431754;1273;139721;-67
2022/03/07 18:14:25;;;;;;;11.80;5.20;;;;;;;1.57;55.26;99930.95;431081;1271;140449;-66
2022/03/07 18:24:33;;;;;;;8.90;4.90;;;;;;;1.36;56.05;99935.70;430231;1271;140473;-65
2022/03/07 18:34:39;;;;;;;9.30;5.30;;;;;;;1.19;56.53;99949.84;431958;1272;139678;-66
2022/03/07 18:44:46;;;;;;;8.00;5.20;;;;;;;1.06;57.15;99959.92;430857;1271;140178;-64
2022/03/07 18:54:50;;;;;;;;;;;;;;;0.85;57.78;99966.14;432609;1270;140293;-66
2022/03/07 19:04:56;;;;;;;12.50;6.50;;;;;;;0.69;58.18;99968.84;431019;1271;128160;-64
2022/03/07 19:15:02;;;;;;;14.80;7.70;;;;;;;0.47;58.65;99975.06;432396;1270;142047;-62
2022/03/07 19:25:11;;;;;;;11.80;7.70;;;;;;;0.22;59.52;99990.42;433076;1270;140313;-63
2022/03/07 19:35:17;;;;;;;12.50;7.60;;;;;;;0.05;59.92;100014.61;431635;1270;140991;-62
2022/03/07 19:45:23;;;;;;;17.20;9.50;;;;;;;-0.18;60.63;100023.17;431563;1270;141003;-63
2022/03/07 19:55:30;;;;;;;14.00;7.80;;;;;;;-0.35;61.33;100025.09;431200;1271;140940;-63
2022/03/07 20:05:36;;;;;;;17.00;9.20;;;;;;;-0.53;61.60;100041.80;432122;1271;141271;-66
2022/03/07 20:15:41;;;;;;;17.60;8.00;;;;;;;-0.66;62.21;100048.14;430258;1270;141903;-65
2022/03/07 20:25:49;;;;;;;15.90;9.80;;;;;;;-0.75;63.04;100054.25;432166;1271;141537;-66
2022/03/07 20:35:55;;;;;;;15.20;7.70;;;;;;;-0.91;63.28;100070.05;432330;1271;279470;-65
2022/03/07 20:46:02;;;;;;;20.00;9.80;;;;;;;-0.99;63.68;100085.06;433721;1271;142855;-64
2022/03/07 20:56:09;;;;;;;19.80;9.70;;;;;;;-1.18;64.15;100087.98;432014;1271;141916;-64
2022/03/07 21:06:15;;;;;;;16.40;7.90;;;;;;;-1.37;64.42;100098.77;430864;1273;143136;-63
2022/03/07 21:16:21;;;;;;;14.60;8.60;;;;;;;-1.47;65.17;100102.78;431701;1273;143751;-64
2022/03/07 21:26:27;;;;;;;12.80;7.40;;;;;;;-1.60;65.48;100091.52;432015;1271;141354;-64
2022/03/07 21:36:33;;;;;;;16.40;8.60;;;;;;;-1.78;65.99;100098.66;431235;1271;141146;-64
2022/03/07 21:46:40;;;;;;;15.10;8.30;;;;;;;-1.91;66.72;100101.64;431802;1271;141205;-63
2022/03/07 21:56:46;;;;;;;15.60;9.30;;;;;;;-1.99;67.28;100103.55;432442;1271;142834;-63
2022/03/07 22:06:53;;;;;;;13.80;7.40;;;;;;;-2.05;67.71;100109.58;430848;1272;143905;-63
2022/03/07 22:16:59;;;;;;;17.30;8.80;;;;;;;-2.18;68.11;100111.85;430885;1271;141933;-63
2022/03/07 22:27:06;;;;;;;11.90;6.80;;;;;;;-2.27;68.55;100114.81;431195;1271;142276;-64
2022/03/07 22:37:10;;;;;;;;;;;;;;;-2.30;69.16;100110.88;431507;1271;142242;-63
2022/03/07 22:47:16;;;;;;;22.60;12.90;;;;;;;-2.32;69.69;100108.81;433533;1271;128696;-64
2022/03/07 22:57:22;;;;;;;14.30;8.50;;;;;;;-2.41;70.04;100115.52;431708;1271;141993;-63
2022/03/07 23:07:28;;;;;;;10.90;6.60;;;;;;;-2.51;70.24;100117.77;433498;1271;141846;-64
2022/03/07 23:17:34;;;;;;;12.90;6.00;;;;;;;-2.63;70.56;100119.34;430775;1271;141827;-60
2022/03/07 23:27:40;;;;;;;15.00;6.70;;;;;;;-2.77;70.95;100122.79;429963;1271;142599;-63
2022/03/07 23:37:46;;;;;;;13.40;7.50;;;;;;;-2.90;71.43;100119.70;431752;1271;141018;-64
2022/03/07 23:47:52;;;;;;;11.50;6.90;;;;;;;-3.01;71.68;100113.54;431611;1271;142245;-62
2022/03/07 23:57:58;;;;;;;17.40;8.00;;;;;;;-3.11;71.86;100113.53;430176;1271;142548;-65
